Logs | Dick Palmer, Wentzville, MO, USA - EM48nv
Paging Controls
Log ID Date UTC KHz ID Location S/P ITU Region GSQ LSB USB Sec. Fmt. Power KM Miles Deg
2160975 2021-07-26 0830 407 ZHU Hauts-Bois / St Hubert (Montreal) QC CAN na FN35hn 95 1616 1004 57
2160974 2021-07-26 0829 407 PLT 'Platte Center' Columbus NE USA na EN11hl 50 622 387 299
2160968 2021-07-26 0825 404 XCR 'Ripley' Little Falls MN USA na EN26tb 50 847 526 341
2160967 2021-07-26 0824 404 MOG Montague CA USA na CN81sr 25 2681 1666 286
2160965 2021-07-26 0818 402 L4 Nipawin SK CAN na DO73xi 200 1894 1177 332
2160984 2021-07-26 0330 417 SLP 'First River' Shelby NC USA na EM95eg 25 914 568 113
2160969 2021-07-26 0317 407 AQ 'Kooky' Appleton WI USA na EN54tf 25 628 390 18
2160961 2021-07-26 0311 400 CI 'Koloe' Sault Ste. Marie MI USA na EN76rh 25 973 605 30
2160980 2021-07-25 1012 414 GL 'Shugr' Goodland KS USA na DM99eh 25 928 577 276
2160962 2021-07-25 0953 400 QQ Comox BC CAN na CN79ms 2936 1824 305
2160982 2021-07-25 0612 415 DJD Canton GA USA na EM74sg 25 769 478 129
2160978 2021-07-25 0608 412 CMY 'Mc Coy' Sparta WI USA na EN43qw 10 561 349 2
2160983 2021-07-25 0540 417 IY 'Chukk' Charles City IA USA na EN33pd 25 497 309 342
2160979 2021-07-24 1048 414 ATS Artesia NM USA na DM72su 25 1394 866 245
2160973 2021-07-24 1036 407 OOC 'Campi' Natchitoches LA USA na EM31lp 25 830 516 194
2160966 2021-07-24 1032 404 HU 'Saltt' Hutchinson KS USA na EM18ac 25 622 387 264
2160959 2021-07-24 1026 400 AHQ Wahoo NE USA na EN11qf 554 344 299
2160960 2021-07-24 1024 400 AI 'Addmo' Ardmore OK USA na EM14mf 25 751 467 228
2160963 2021-07-24 1023 400 ROB 'Robinson' Waco TX USA na EM11lm 993 617 216
2160985 2021-07-24 0337 419 RYS 'Grosse Ile' Detroit / Grosse Ile MI USA na EN82kc 25 746 463 58
2160981 2021-07-24 0331 414 SU 'Salix' Sioux City IA USA na EN12uh 40 594 369 311
2160977 2021-07-24 0324 410 BA 'Clifs' Columbus IN USA na EM79ch 25 441 274 82
2160976 2021-07-24 0323 408 JDM 'Wheatfield' Colby KS USA na DM99lm 25 878 546 277
2160971 2021-07-24 0317 407 HRU Herington KS USA na EM18oq 25 513 319 269
2160972 2021-07-24 0317 407 IL 'Airbo' Wilmington OH USA na EM89dl 25 621 386 81
2160964 2021-07-24 0314 401 YPO Peawanuck ON CAN na EO74gx 125 1834 1139 11
2160970 2021-07-23 1714 407 CM 'Veals' Champaign / Urbana IL USA na EM59vx 259 161 61
2143639 2021-05-31 1031 359 SDR Snyder TX USA na DM92mq 25 1140 709 235
2143636 2021-05-31 1020 344 JL 'Lunns' Joplin MO USA na EM27re 373 232 240
2143634 2021-05-31 1017 338 TT 'Stutt' Stuttgart AR USA na EM44fm 25 490 304 187
2143633 2021-05-31 1016 335 BV 'Almnd' Batesville AR USA na EM45cq 25 366 227 193
2143648 2021-05-31 0044 400 AHQ Wahoo NE USA na EN11qf 554 344 299
2143635 2021-05-31 0018 341 FO 'Barro' Fort Dodge IA USA na EN22um 25 495 308 325
2143631 2021-05-31 0013 332 DN 'Julip' Danville IL USA na EN60fg 324 201 60
2143626 2021-05-31 0010 293 FBY Fairbury NE USA na EN10ke 50 555 345 286
2143624 2021-05-31 0007 277 OT 'Wondd' Worthington MN USA na EN23go 25 649 403 325
2143625 2021-05-30 1037 278 ADG Adrian MI USA na EN71xu 50 665 413 58
2143623 2021-05-30 1036 275 DE 'Elwin' Decatur IL USA na EM59ms 191 119 58
2143649 2021-05-30 1032 407 CM 'Veals' Champaign / Urbana IL USA na EM59vx 259 161 61
2143647 2021-05-30 1031 397 CIR Cairo IL USA na EM57jb 25 251 156 143
2143646 2021-05-30 1030 391 PLX 'Palestine' Robinson IL USA na EM69ea 25 281 175 86
2143645 2021-05-30 1029 390 BR 'Burns' Burlington IL USA na EN40kp 25 196 122 353
2143644 2021-05-30 1028 388 MD 'Cabbi' Carbondale / Murphysboro IL USA na EM57ju 186 115 128
2143642 2021-05-30 1027 382 SP 'Huskk' Springfield IL USA na EM59cs 25 135 84 43
2143643 2021-05-30 1027 385 JD 'Gooey' Belleville IL USA na EM58dl 111 69 114
2143641 2021-05-30 1025 375 LQ 'Licol' Springfield IL USA na EM59ev 155 96 43
2143640 2021-05-30 1024 365 SYZ Shelbyville IL USA na EM59nj 25 181 113 71
2143638 2021-05-30 1022 350 CP 'Acore' Cahokia / St Louis IL USA na EM48xm 25 83 52 119
2143637 2021-05-30 1021 347 AFK Nebraska City NE USA na EN20bo 468 291 295
2143632 2021-05-30 1018 334 LH 'Egrow' Bloomington IL USA na EN50nn 252 157 42
2143629 2021-05-30 1016 326 SU 'Snoop' Saint Louis MO USA na EM48op 25 29 18 165
2143630 2021-05-30 1016 329 AAA 'Abraham' Lincoln IL USA na EN50hd 25 189 118 42
2143628 2021-05-30 1015 305 OI 'Tommi' South Sioux City NE USA na EN12sl 25 616 383 312
2143627 2021-05-30 1013 293 UI Quincy IL USA na EM49iv 25 117 73 342
2128483 2021-04-26 0322 338 TU 'Oillr' Tulsa OK USA na EM26bc 539 335 236
2128495 2021-04-26 0312 341 SB 'Misha' South Bend IN USA na EN61vq 503 312 50
2128475 2021-04-26 0311 335 ZKF Kitchener (Wellington) ON CAN na EN93ul 15 1021 634 56
2128476 2021-04-25 0715 336 BV Champlain QC CAN na FN46iu 25 1817 1129 54
2128502 2021-04-25 0656 345 GF 'Hiser' Grand Forks ND USA na EN17ju 1119 695 334
2128501 2021-04-25 0653 344 ZSB Noranda (Sudbury) ON CAN na EN96pq 100 1198 744 40
2128498 2021-04-25 0646 344 JL 'Lunns' Joplin MO USA na EM27re 373 232 240
2128493 2021-04-25 0639 342 ST 'Hussk' St Cloud MN USA na EN35al 25 775 481 341
2128492 2021-04-25 0633 341 FO 'Barro' Fort Dodge IA USA na EN22um 25 495 308 325
2128479 2021-04-24 1058 338 HR 'Sebas' Harlingen TX USA na EL16eh 25 1534 953 206
2128505 2021-04-24 1046 347 ATA Atlanta TX USA na EM23vc 25 710 441 205
2128496 2021-04-24 1036 344 CGQ 'Powell' Corsicana TX USA na EM12sb 912 567 215
2128491 2021-04-24 1028 341 DNI Denison TX USA na EM13pt 25 769 478 224
2128486 2021-04-24 1023 339 OP 'Yates' Thomaston GA USA na EM72vw 893 555 135
2128487 2021-04-24 1022 340 GN 'Brindl' Lexington KY USA na EM78rc 558 347 97
2128482 2021-04-24 1016 338 TT 'Stutt' Stuttgart AR USA na EM44fm 25 490 304 187
2128481 2021-04-24 1013 338 RYN 'Ryan' Tucson AZ USA na DM42kd 400 1975 1227 253
2128478 2021-04-24 1009 336 MA 'Wexford' Cadillac MI USA na EN74ff 740 460 35
2128472 2021-04-24 1003 335 BK 'CHRLZ' Brookings SD USA na EN14mi 25 789 491 322
2128473 2021-04-24 1002 335 BV 'Almnd' Batesville AR USA na EM45cq 25 366 227 193
2128480 2021-04-24 0956 338 JZ 'Newbn' Lawrence KS USA na EM28kv 25 368 228 271
2128494 2021-04-24 0952 341 OIN Oberlin KS USA na DM99rt 25 837 520 280
2128490 2021-04-24 0951 341 CQN 'Daisy' Chattanooga TN USA na EM75kd 50 659 409 127
2128489 2021-04-24 0950 341 CCJ 'Clark Co' Springfield OH USA na EM89cu 25 618 384 77
2128497 2021-04-24 0945 344 JA 'Dinns' Jacksonville FL USA na EM90cl 400 1250 777 135
2128500 2021-04-24 0941 344 UNU Juneau WI USA na EN53pk 537 333 19
2128499 2021-04-24 0940 344 TKH 'Tallulah' Vicksburg LA USA na EM42lf 741 461 181
2128504 2021-04-24 0935 347 AFK Nebraska City NE USA na EN20bo 468 291 295
2128508 2021-04-24 0934 349 GW 'Teock' Greenwood MS USA na EM43wo 25 592 368 173
2128507 2021-04-24 0933 348 MC 'Surff' Mason City IA USA na EN33ib 25 506 314 337
2128506 2021-04-24 0932 347 PA Prince Albert SK CAN na DO73cf 25 1957 1216 329
2128503 2021-04-24 0930 346 YXL Sioux Lookout ON CAN na EO40bc 1000 1249 776 356
2128485 2021-04-24 0928 338 ZEM Eastmain QC CAN na FO02rf 25 1761 1094 28
2128488 2021-04-24 0928 340 YY Mont Joli QC CAN na FN58un 500 2097 1303 51
2128477 2021-04-24 0927 336 LF La Salle MB CAN na EN19ip 50 1299 807 339
2128474 2021-04-24 0925 335 YLD Chapleau ON CAN na EN87hs 100 1157 719 29
2128484 2021-04-24 0115 338 UMP 'Metropolitan' Indianapolis IN USA na EM69xw 25 431 268 72
2116350 2021-03-27 0807 368 SX Skookum (Cranbrook) BC CAN na DN29cw 500 2312 1437 310
2116351 2021-03-27 0758 368 VIQ Neillsville WI USA na EN44rn 25 631 392 2
2116343 2021-03-27 0753 365 JN 'Balll' Muncie IN USA na EN70ie 500 310 71
2116347 2021-03-27 0752 366 EZM Eastman GA USA na EM82kd 25 1026 638 134
2116346 2021-03-27 0749 365 TV 'Gwenn' Traverse City MI USA na EN74gr 30 788 490 32
2116342 2021-03-27 0738 365 FT 'Mufin' Fort Worth TX USA na EM12hv 25 887 551 223
2116333 2021-03-27 0733 361 HB 'Himun' Burlington NC USA na FM05ex 1044 649 104
2116334 2021-03-27 0730 362 AK Akron OH USA na EN91hb 844 524 70
2116336 2021-03-27 0729 362 MT Manitowac WI USA na EN64de 645 400 23
2116335 2021-03-27 0725 362 CA 'Murry' Columbia SC USA na EM93jx 1022 635 119
2116337 2021-03-27 0724 362 RPX Round Up MT USA na DN56rl 25 1667 1035 306
2116332 2021-03-27 0717 360 SW 'Roadd' Warroad MN USA na EN28ju 25 1160 721 344
2116331 2021-03-27 0715 360 PN Port-Menier / Ile Anticosti QC CAN na FN79tu 500 2414 1500 51
2116330 2021-03-27 0711 359 SDR Snyder TX USA na DM92mq 25 1140 709 235
2116327 2021-03-27 0709 357 IM 'Keans' Asheville NC USA na EM85qm 821 510 114
2116322 2021-03-27 0708 356 GR 'Famis' Green Bay WI USA na EN54vk 655 407 18
2116323 2021-03-27 0706 356 ODX Ord NE USA na EN01mo 25 749 465 296
2116325 2021-03-27 0705 356 SJ 'Woole' San Angelo TX USA na DM91rg 1220 758 228
2116326 2021-03-27 0700 356 ZXE Barnes (Saskatoon) SK CAN na DO62rd 39 1905 1183 325
2116321 2021-03-27 0659 356 AY St Anthony NL CAN na GO11wj 25 3021 1877 51
2116320 2021-03-27 0651 353 VV 'Junne' Greensboro GA USA na EM83lp 913 567 127
2116317 2021-03-27 0648 353 IN 'Raize' International Falls MN USA na EN38il 100 1083 673 350
2116319 2021-03-27 0648 353 PG Portage MB CAN na EN09vu 25 1349 838 336
2116316 2021-03-27 0647 353 GVB 'Bogalusa' George R Carr Memorial Airfield LA USA na EM50bv 894 556 173
2116313 2021-03-27 0641 351 MSQ Culpeper VA USA na FM18bk 25 1129 701 88
2116311 2021-03-27 0636 350 D7 Kincardine ON CAN na EN94ee 25 968 601 49
2116338 2021-03-27 0258 362 SB Sudbury ON CAN na EN96mp 400 1180 733 39
2116339 2021-03-27 0257 362 SUR Fitzgerald GA USA na EM81io 25 1063 660 137
2116329 2021-03-27 0256 359 GYG Grayling MI USA na EN74or 25 821 510 35
2116315 2021-03-27 0238 352 VM 'Meana', Mena Intermountain Municipal AR USA na EM24xm 25 562 349 211
2116344 2021-03-27 0236 365 PAL Palma EQA sa FI07cx 1000 4689 2913 163
2116349 2021-03-27 0229 368 ROQ Ruston LA USA na EM32qo 25 717 446 193
2116352 2021-03-27 0229 369 ZDX Coolidge Saint Johns ATG ca FK97cd 700 3711 2306 122
2116348 2021-03-27 0228 366 YMW Maniwaki QC CAN na FN26ae 500 1463 909 51
2116341 2021-03-27 0226 365 AA 'Kenie' Fargo MN USA na EN17oa 100 1023 636 333
2116340 2021-03-27 0225 363 RNB 'Rainbow' Millville NJ USA na FM29kk 50 1357 843 82
2116328 2021-03-27 0221 359 GGF Grant NE USA na DN90du 949 590 286
2116318 2021-03-27 0217 353 LI 'Lasky' Little Rock AR USA na EM34uq 400 485 301 195
2116312 2021-03-27 0212 350 RG 'Gally' Oklahoma City OK USA na EM15eh 400 719 447 238
2116314 2021-03-27 0212 351 YKQ Waskaganish QC CAN na FO01pl 500 1688 1049 30
2116345 2021-03-26 1711 365 SYZ Shelbyville IL USA na EM59nj 25 181 113 71
2116324 2021-03-26 1706 356 PI 'Tungg' Peoria IL USA na EN50eo 40 218 135 28
2116310 2021-03-26 1703 350 CP 'Acore' Cahokia / St Louis IL USA na EM48xm 25 83 52 119
2091176 2021-02-22 0826 426 UV 'Tunng' Oxford MS USA na EM54ej 25 513 319 167
2091208 2021-02-22 0824 420 TU 'Veron' Tupelo MS USA na EM54oe 25 556 345 159
2091200 2021-02-22 0811 340 YY Mont Joli QC CAN na FN58un 500 2097 1303 51
2091191 2021-02-22 0805 350 NY Enderby BC CAN na DO00mp 500 2550 1585 310
2091141 2021-02-22 0801 206 XBE Bearskin Lake ON CAN na EO43lx 25 1677 1042 359
2091194 2021-02-22 0800 206 QI Yarmouth NS CAN na FN63wt 500 2128 1322 67
2091164 2021-02-22 0758 209 ITR 'Kit Carson' Burlington CO USA na DM89uf 25 986 612 275
2091142 2021-02-22 0757 216 YFA Fort Albany ON CAN na EO92de 200 1638 1018 22
2091192 2021-02-22 0756 212 YGX Gillam MB CAN na EO26pi 1962 1219 352
2091193 2021-02-22 0754 280 QX Gander NL CAN na GN28px 1000 3070 1907 56
2091196 2021-02-22 0750 254 5B Summerside PE CAN na FN86bj 250 2346 1458 60
2091195 2021-02-22 0748 201 YKX Kirkland Lake ON CAN na FN08bf 200 1362 846 36
2091203 2021-02-21 0902 339 OP 'Yates' Thomaston GA USA na EM72vw 893 555 135
2091204 2021-02-21 0816 341 OIN Oberlin KS USA na DM99rt 25 837 520 280
2091205 2021-02-21 0809 341 CCJ 'Clark Co' Springfield OH USA na EM89cu 25 618 384 77
2091186 2021-02-21 0808 341 CQN 'Daisy' Chattanooga TN USA na EM75kd 50 659 409 127
2091165 2021-02-21 0802 326 PKZ 'Pickens' Pensacola FL USA na EM60jk 400 998 620 159
2091153 2021-02-21 0232 382 YPL Pickle Lake ON CAN na EO41vk 500 1395 867 1
2091147 2021-02-20 1024 326 YQK Kenora ON CAN na EN29st 200 1246 774 348
2091161 2021-02-20 1013 224 BH 'Mc Den' Birmingham AL USA na EM63nm 400 697 433 147
2091185 2021-02-20 1012 392 AGZ Wagner SD USA na EN03ub 25 776 482 309
2091146 2021-02-20 0956 276 YEL Elliot Lake ON CAN na EN86qi 250 1068 664 36
2091198 2021-02-20 0946 317 VC La Ronge SK CAN na DO75ic 500 2099 1304 333
2091184 2021-02-20 0941 329 CH 'Ashly' Charleston SC USA na EM92wx 400 1169 726 120
2091149 2021-02-20 0935 346 YXL Sioux Lookout ON CAN na EO40bc 1000 1249 776 356
2091199 2021-02-20 0934 335 YLD Chapleau ON CAN na EN87hs 100 1157 719 29
2091201 2021-02-20 0931 338 RYN 'Ryan' Tucson AZ USA na DM42kd 400 1975 1227 253
2091202 2021-02-20 0930 344 JA 'Dinns' Jacksonville FL USA na EM90cl 400 1250 777 135
2091183 2021-02-20 0924 350 RG 'Gally' Oklahoma City OK USA na EM15eh 400 719 447 238
2091188 2021-02-20 0923 351 MSQ Culpeper VA USA na FM18bk 25 1129 701 88
2091150 2021-02-20 0918 355 YWP Webequie ON CAN na EO62hx 100 1589 987 8
2091151 2021-02-20 0916 362 SB Sudbury ON CAN na EN96mp 400 1180 733 39
2091177 2021-02-20 0914 362 RPX Round Up MT USA na DN56rl 25 1667 1035 306
2091180 2021-02-20 0910 363 RNB 'Rainbow' Millville NJ USA na FM29kk 50 1357 843 82
2091189 2021-02-20 0907 368 VIQ Neillsville WI USA na EN44rn 25 631 392 2
2091152 2021-02-20 0903 376 YAG Fort Frances ON CAN na EN38fq 40 1109 689 349
2091190 2021-02-20 0901 380 GC 'Deryk' Gillette WY USA na DN74fg 25 1356 842 300
2091162 2021-02-20 0858 385 HO 'Hossy' Hot Springs AR USA na EM34jk 50 538 334 203
2091187 2021-02-20 0858 385 CPZ 'Chaparrosa Ranch' La Pryor TX USA na DL98xv 25 1395 867 219
2091167 2021-02-20 0849 391 EFW Jefferson IA USA na EN22ta 25 456 284 320
2091154 2021-02-20 0848 391 OO Oshawa ON CAN na FN03nw 7 1145 712 56
2091155 2021-02-20 0844 397 ZHA Ancaster (Hamilton) ON CAN na EN93xe 14 1025 637 58
2091156 2021-02-20 0842 399 ZHD 'Thunder' Dryden ON CAN na EN39qt 25 1222 759 354
2091157 2021-02-20 0838 401 YPO Peawanuck ON CAN na EO74gx 125 1834 1139 11
2091158 2021-02-20 0837 403 ZTO Woodhill / Brampton (Toronto) ON CAN na FN03dr 40 1075 668 56
2091163 2021-02-20 0837 404 MOG Montague CA USA na CN81sr 25 2681 1666 286
2091174 2021-02-20 0836 404 XCR 'Ripley' Little Falls MN USA na EN26tb 50 847 526 341
2091182 2021-02-20 0833 407 IL 'Airbo' Wilmington OH USA na EM89dl 25 621 386 81
2091172 2021-02-20 0832 407 OOC 'Campi' Natchitoches LA USA na EM31lp 25 830 516 194
2091197 2021-02-20 0831 407 ZHU Hauts-Bois / St Hubert (Montreal) QC CAN na FN35hn 95 1616 1004 57
2091170 2021-02-20 0830 408 JDM 'Wheatfield' Colby KS USA na DM99lm 25 878 546 277
2091159 2021-02-20 0829 408 SN 'St. Catharines' Saint Catharines ON CAN na FN03id 12 1079 671 60
2091181 2021-02-20 0825 414 ATS Artesia NM USA na DM72su 25 1394 866 245
2091171 2021-02-20 0824 414 LK 'Laang' Louisville KY USA na EM78ed 464 288 98
2091166 2021-02-20 0822 415 DJD Canton GA USA na EM74sg 25 769 478 129
2091179 2021-02-20 0821 416 LB 'Panbe' North Platte NE USA na DN91rb 50 858 533 289
2091178 2021-02-20 0820 417 SLP 'First River' Shelby NC USA na EM95eg 25 914 568 113
2091173 2021-02-20 0817 419 RYS 'Grosse Ile' Detroit / Grosse Ile MI USA na EN82kc 25 746 463 58
2091206 2021-02-20 0814 420 CFY 'Evans' Lake City SC USA na FM03cu 25 1138 707 116
2091207 2021-02-20 0813 420 FQ 'Montz' Fairmont MN USA na EN23tp 25 604 375 332
2091160 2021-02-20 0809 516 YWA Petawawa ON CAN na FN15iv 25 1357 843 50
2091148 2021-02-20 0101 332 QT Thunder Bay ON CAN na EN58gi 1000 1058 657 5
2091145 2021-02-20 0055 233 QN Nakina ON CAN na EO60qe 400 1299 807 13
2091144 2021-02-20 0054 223 YYW Armstrong ON CAN na EO50lh 100 1278 794 5
2091143 2021-02-20 0053 218 RL Red Lake ON CAN na EO31cb 1000 1372 852 351
2091169 2021-02-19 1837 338 UMP 'Metropolitan' Indianapolis IN USA na EM69xw 25 431 268 72
2091168 2021-02-19 1830 251 JZY Macomb IL USA na EN40rm 25 183 114 8
2091175 2021-02-19 1826 227 FZ 'Eaves' St. Louis MO USA na EM48rq 37 23 128
2067210 2021-01-25 0639 320 YQF Red Deer AB CAN na DO32bd 50 2302 1430 317
2067225 2021-01-25 0038 332 PH 'Phurn' Port Huron MI USA na EN82qu 821 510 54
2067221 2021-01-25 0032 329 YEK Arviat NU CAN na EP21xc 500 2479 1540 355
2067223 2021-01-25 0017 332 DN 'Julip' Danville IL USA na EN60fg 324 201 60
2067212 2021-01-24 0025 326 FC Fredericton NB CAN na FN65qw 1600 2129 1323 60
2067219 2021-01-23 1125 329 CH 'Ashly' Charleston SC USA na EM92wx 400 1169 726 120
2067227 2021-01-23 0835 332 XH Medicine Hat AB CAN na DO40oa 50 1996 1240 314
2067224 2021-01-23 0228 332 FIS 'Fish Hook' Key West FL USA na EL94cn 400 1808 1123 149
2067222 2021-01-23 0226 331 JV 'Catch' Jeffersonville IN USA na EM78dl 451 280 94
2067220 2021-01-23 0221 329 PMV Plattsmouth NE USA na EN20bw 25 483 300 299
2067213 2021-01-23 0213 326 MA 'Farly' Midland TX USA na DM81ux 400 1287 800 236
2067214 2021-01-23 0029 326 PKZ 'Pickens' Pensacola FL USA na EM60jk 400 998 620 159
2067229 2021-01-23 0015 334 YER Fort Severn ON CAN na EO65ex 195 1915 1190 6
2067226 2021-01-23 0013 332 QT Thunder Bay ON CAN na EN58gi 1000 1058 657 5
2067218 2021-01-23 0005 329 AAA 'Abraham' Lincoln IL USA na EN50hd 25 189 118 42
2067217 2021-01-23 0004 328 YTL Big Trout Lake ON CAN na EO53bt 1000 1660 1032 2
2067216 2021-01-23 0003 326 YQK Kenora ON CAN na EN29st 200 1246 774 348
2067211 2021-01-23 0002 323 OUK Calhoun GA USA na EM74mj 24 727 452 131
2067228 2021-01-22 2134 334 LH 'Egrow' Bloomington IL USA na EN50nn 252 157 42
2067215 2021-01-22 2120 326 SU 'Snoop' Saint Louis MO USA na EM48op 25 29 18 165
2060084 2021-01-18 1009 385 CPZ 'Chaparrosa Ranch' La Pryor TX USA na DL98xv 25 1395 867 219
2060083 2021-01-18 0951 365 SYZ Shelbyville IL USA na EM59nj 25 181 113 71
2060091 2021-01-18 0942 517 FN 'Hillz' Clinton IA USA na EN41ts 322 200 7
2060090 2021-01-18 0933 416 LB 'Panbe' North Platte NE USA na DN91rb 50 858 533 289
2060089 2021-01-18 0925 410 BA 'Clifs' Columbus IN USA na EM79ch 25 441 274 82
2060088 2021-01-18 0920 407 BZ 'Bullo' Statesboro GA USA na EM92ek 25 1101 684 127
2060087 2021-01-18 0918 404 MOG Montague CA USA na CN81sr 25 2681 1666 286
2060086 2021-01-18 0910 396 CRS Corsicana TX USA na EM12ta 25 912 567 214
2060085 2021-01-18 0905 395 OS 'Pober' Oshkosh WI USA na EN53ru 585 363 18
2047594 2021-01-04 1040 214 LU 'Cultus' Abbotsford BC CAN na CN89xa 400 2712 1685 304
2047592 2021-01-04 1038 209 SYS 'Stoystown' Somerset PA USA na FN00nc 25 1037 645 78
2047593 2021-01-04 1038 210 IOB Mount Sterling KY USA na EM88ab 49 609 378 96
2047591 2021-01-04 1036 207 CL Charlo NB CAN na FN68sa 1000 2203 1369 54
2047595 2021-01-04 1026 233 BR Brandon MB CAN na DN99xv 25 1421 883 332
2047636 2021-01-04 1022 524 HRD 'Hardin County' Kountze / Silsbee TX USA na EM20ui 25 1000 621 199
2047635 2021-01-04 1016 394 RWO 'Woody Island' Kodiak AK ALS na BO37us 4796 2980 316
2047634 2021-01-04 1012 393 FGP Fort Bragg NC USA na FM05od 40 1150 714 107
2047633 2021-01-04 1009 392 PNA 'Wenz' Pinedale WY USA na DN52ct 25 1645 1022 291
2047632 2021-01-04 1005 391 FIQ 'Fiddlers' Morganton NC USA na EM95dr 25 883 549 110
2047631 2021-01-04 1004 391 EFW Jefferson IA USA na EN22ta 25 456 284 320
2047630 2021-01-04 1002 391 4W Kelsey MB CAN na EO16ra 25 1950 1211 349
2047629 2021-01-04 1000 390 OWC 'Coffee County' Douglas GA USA na EM81mj 25 1101 684 136
2047628 2021-01-04 0959 389 PVC Provincetown MA USA na FN42vb 25 1778 1105 71
2047627 2021-01-04 0951 388 RNW Chocowinity NC USA na FM15km 25 1273 791 102
2047626 2021-01-04 0949 388 HAH 'Natchez-Adams Co' Natchez MS USA na EM41iq 802 499 182
2047625 2021-01-04 0948 388 H7 Manitoulin East (Manitowaning) ON CAN na EN95bu 25 1069 664 40
2047624 2021-01-04 0946 386 SYF St. Francis KS USA na DM99cr 25 943 586 279
2047623 2021-01-04 0942 385 PTP Pointe a Pitre GDL ca FK96eg 3795 2358 123
2047621 2021-01-04 0941 385 LN 'Potts' Lincoln NE USA na EN10or 45 545 338 293
2047622 2021-01-04 0936 385 OCC 'Ocean Cape' Yakutat AK ALS na CO09dn 4090 2541 320
2047620 2021-01-04 0933 383 PI 'Tyhee' Pocatello ID USA na DN32rx 400 1870 1162 290
2047618 2021-01-04 0923 380 UMB 'Culvr' Milledgeville GA USA na EM83kd 25 945 587 130
2047619 2021-01-04 0923 382 MW 'Jonny' Marion IL USA na EM57mu 25 203 126 124
2047617 2021-01-04 0922 380 GC 'Deryk' Gillette WY USA na DN74fg 25 1356 842 300
2047616 2021-01-04 0919 379 RUE Russellville AR USA na EM35kg 25 450 279 207
2047615 2021-01-04 0911 375 LF 'Laffs' Lafayette LA USA na EM40bg 963 599 185
2047614 2021-01-04 0909 375 DS Searcy AR USA na EM45cc 25 429 267 191
2047613 2021-01-04 0908 374 HY 'Nette' Hays KS USA na EM08js 722 448 271
2047612 2021-01-04 0905 374 EX Rutland (Kelowna) BC CAN na DN09hw 2553 1586 308
2047609 2021-01-04 0902 372 UQN 'Onyun' Vidalia GA USA na EM82uf 25 1072 666 131
2047610 2021-01-04 0902 372 YCO Coppermine / Kugluktuk NU CAN na DP27kt 1000 3542 2201 342
2047611 2021-01-04 0902 372 ZPA Glass (Prince Albert) SK CAN na DO73ff 25 1946 1209 329
2047608 2021-01-04 0901 372 MF 'Manns' Mansfield OH USA na EN80ss 748 465 71
2047607 2021-01-04 0857 370 VOF 'Alcovy' Covington GA USA na EM83cp 862 536 130
2047606 2021-01-04 0854 368 VIQ Neillsville WI USA na EN44rn 25 631 392 2
2047604 2021-01-04 0853 368 ROQ Ruston LA USA na EM32qo 25 717 446 193
2047605 2021-01-04 0853 368 TEC 'Tech' Blacksburg VA USA na EM97te 25 938 583 98
2047603 2021-01-04 0851 368 AN 'Alamo' San Antonio TX USA na EL09ro 400 1249 776 216
2047602 2021-01-04 0848 366 EZM Eastman GA USA na EM82kd 25 1026 638 134
2047599 2021-01-04 0844 365 JA 'Allen' Jackson MS USA na EM42wj 726 451 174
2047601 2021-01-04 0844 365 TV 'Gwenn' Traverse City MI USA na EN74gr 30 788 490 32
2047600 2021-01-04 0841 365 TOI 'Blood' Troy AL USA na EM61wt 897 558 149
2047598 2021-01-04 0838 362 YZS Coral Harbour NU CAN na EP84id 500 2852 1772 7
2047597 2021-01-04 0837 362 SUR Fitzgerald GA USA na EM81io 25 1063 660 137
2047596 2021-01-04 0836 362 MT Manitowac WI USA na EN64de 645 400 23
2043696 2020-12-31 1036 423 SIF 'Slammer' Reidsville NC USA na FM06cj 25 1014 630 102
2043695 2020-12-31 1024 410 JU 'Ashee' West Jefferson NC USA na EM96ik 25 886 551 104
2043694 2020-12-31 1009 405 2K Camrose AB CAN na DO33oa 2293 1425 320
2043693 2020-12-31 1006 402 M3 Kindersley SK CAN na DO51jm 1998 1241 320
2043692 2020-12-31 1003 402 CV Carlz Carlsbad NM USA na DM72tg 1423 884 242
2043691 2020-12-31 0955 400 OHY 'Coney' Cordele GA USA na EM81bx 25 996 619 138
2043690 2020-12-31 0952 397 ZSS Yellowhead (Saskatoon) SK CAN na DO62pf 25 1919 1193 325
2043689 2020-12-31 0933 391 4W Kelsey MB CAN na EO16ra 25 1950 1211 349
2043688 2020-12-31 0924 388 JW 'Pigeon' Jumping Pound Creek AB CAN na DO21qb 15 2289 1423 313
2043687 2020-12-31 0912 386 SYF St. Francis KS USA na DM99cr 25 943 586 279
2043686 2020-12-31 0906 385 PTP Pointe a Pitre GDL ca FK96eg 3795 2358 123
2043685 2020-12-31 0902 385 DXB De Ridder LA USA na EM30hs 932 579 194
2043683 2020-12-31 0851 380 UMB 'Culvr' Milledgeville GA USA na EM83kd 25 945 587 130
2043684 2020-12-31 0850 383 PI 'Tyhee' Pocatello ID USA na DN32rx 400 1870 1162 290
2043682 2020-12-31 0843 375 GL Gaylord MI USA na EN75oa 846 526 34
2043681 2020-12-31 0830 370 VOF 'Alcovy' Covington GA USA na EM83cp 862 536 130
2043680 2020-12-31 0824 366 EZM Eastman GA USA na EM82kd 25 1026 638 134
2043679 2020-12-31 0820 365 JA 'Allen' Jackson MS USA na EM42wj 726 451 174
2042603 2020-12-30 1156 362 CA 'Murry' Columbia SC USA na EM93jx 1022 635 119
2042602 2020-12-30 1155 361 HB 'Himun' Burlington NC USA na FM05ex 1044 649 104
2042601 2020-12-30 1151 360 SW 'Roadd' Warroad MN USA na EN28ju 25 1160 721 344
2042600 2020-12-30 1144 357 IM 'Keans' Asheville NC USA na EM85qm 821 510 114
2042599 2020-12-30 1139 356 ZXE Barnes (Saskatoon) SK CAN na DO62rd 39 1905 1183 325
2042598 2020-12-30 1138 356 ZF Yellowknife NT CAN na DP22sj 1000 3059 1900 336
2042597 2020-12-30 1136 355 CS 'Fenix' Columbus GA USA na EM72lk 890 553 141
2042596 2020-12-30 1134 353 VV 'Junne' Greensboro GA USA na EM83lp 913 567 127
2042595 2020-12-30 1130 353 LLD Lanai HI HWA oc BL10ms 2000 6540 4064 272
2042594 2020-12-30 1127 353 GVB 'Bogalusa' George R Carr Memorial Airfield LA USA na EM50bv 894 556 173
2042593 2020-12-30 1126 352 BVG 'Boll Weevil' Enterprise AL USA na EM71ai 950 590 150
2042592 2020-12-30 1122 350 LF 'Flufy' Lufkin TX USA na EM21of 924 574 203
2042591 2020-12-30 1116 347 GC 'Pieve' Garden City KS USA na DM97pt 25 865 538 265
2042590 2020-12-30 1105 345 PUF 'Puff' Estherville IA USA na EN23pi 590 367 328
2042589 2020-12-30 1102 345 GF 'Hiser' Grand Forks ND USA na EN17ju 1119 695 334
2042587 2020-12-30 1050 339 OP 'Yates' Thomaston GA USA na EM72vw 893 555 135
2042588 2020-12-30 1050 340 GN 'Brindl' Lexington KY USA na EM78rc 558 347 97
2042586 2020-12-30 1048 338 TU 'Oillr' Tulsa OK USA na EM26bc 539 335 236
2042585 2020-12-30 1046 338 CYR 'Caidy' Cairo GA USA na EM70wv 25 1081 672 143
2042584 2020-12-30 1040 335 AWS 'Lawson' Columbus GA USA na EM72lh 902 560 142
2042583 2020-12-30 1038 332 XH Medicine Hat AB CAN na DO40oa 50 1996 1240 314
2042581 2020-12-29 1156 323 KR Squaw Schefferville QC CAN na FO64ot 250 2523 1567 37
2042580 2020-12-29 1140 284 RQY 'Randolph Co' Elkins WV USA na FM08bv 50 951 591 86
2042579 2020-12-29 1136 281 CA Cartwright NL CAN na GO13lr 1000 3034 1885 45
2042578 2020-12-29 1129 275 R1 Thetford Mines QC CAN na FN46ib 25 1786 1110 57
2042577 2020-12-29 1118 266 YZX Greenwood NS CAN na FN74kw 400 2223 1381 64
2042576 2020-12-29 1103 250 UGS 'University' Athens / Albany OH USA na EM89wg 25 756 470 84
2042575 2020-12-29 1102 248 PQF Mesquite TX USA na EM12rt 25 847 526 218
2042574 2020-12-29 1056 242 XC Cranbrook BC CAN na DN29cq 400 2302 1430 309
2042573 2020-12-29 1031 201 IP Mobile AZ USA na DM33tc 25 2033 1263 258
2041362 2020-12-28 1139 326 SU 'Snoop' Saint Louis MO USA na EM48op 25 29 18 165
2042582 2020-12-28 1133 332 HK 'Tawba' Hickory NC USA na EM95is 25 915 569 109
2041361 2020-12-28 1128 353 LI 'Lasky' Little Rock AR USA na EM34uq 400 485 301 195
2041360 2020-12-28 1125 350 RG 'Gally' Oklahoma City OK USA na EM15eh 400 719 447 238
2041359 2020-12-28 1120 242 EL 'Valtr' El Paso TX USA na DM61uu 400 1599 993 245
2041358 2020-12-28 1118 338 RYN 'Ryan' Tucson AZ USA na DM42kd 400 1975 1227 253
2041357 2020-12-28 1107 404 MOG Montague CA USA na CN81sr 25 2681 1666 286
2041356 2020-12-28 1106 209 ITR 'Kit Carson' Burlington CO USA na DM89uf 25 986 612 275
2041355 2020-12-26 0858 347 AFK Nebraska City NE USA na EN20bo 468 291 295
2041354 2020-12-26 0143 269 BEX Bloomfield IA USA na EN30sr 25 245 152 326
2041353 2020-12-25 2305 326 SU 'Snoop' Saint Louis MO USA na EM48op 25 29 18 165
2026129 2020-12-15 0903 330 MF 'Missi' Mc Allen TX USA na EL06ug 1565 972 208
2026128 2020-12-15 0859 329 CH 'Ashly' Charleston SC USA na EM92wx 400 1169 726 120
2026127 2020-12-15 0853 323 TAB Crown Point TRD ca FK91nd 4280 2659 127
2026118 2020-12-15 0849 284 BT 'Rundi' Baton Rouge LA USA na EM40jn 927 576 181
2026117 2020-12-15 0845 281 CX 'Alibi' Conroe TX USA na EM20gk 25 1029 640 205
2026108 2020-12-15 0839 272 RH 'Arsha' Rhinelander WI USA na EN55ep 758 471 7
2026107 2020-12-15 0837 272 LD 'Lubbi' Lubbock TX USA na DM93dp 25 1132 703 242
2026106 2020-12-15 0834 271 HXO Huntsboro NC USA na FM06qh 25 1116 693 101
2026104 2020-12-15 0832 269 LOR 'Lowe' Fort Rucker (Ozark) AL USA na EM71di 961 597 149
2026103 2020-12-15 0828 266 PYX Perryton TX USA na DM96pj 25 909 565 255
2026102 2020-12-15 0826 264 JUY 'Judd' Andelusia AL USA na EM61th 25 937 582 152
2026100 2020-12-15 0817 260 ST 'Tario' Saint Joseph MO USA na EM29nq 25 355 221 285
2026099 2020-12-15 0814 260 CL 'Rowdy' College Station TX USA na EM10tl 1062 660 209
2026098 2020-12-15 0810 257 MB 'Olste' Saginaw MI USA na EN73vl 755 469 45
2026097 2020-12-15 0802 254 MB Manistee MI USA na EN64wg 716 445 31
2026095 2020-12-15 0801 253 OC 'Nados' Nacogdoches TX USA na EM21pl 25 895 556 204
2026094 2020-12-15 0759 252 SMS Sumter SC USA na EM93tx 25 1086 675 116
2026091 2020-12-15 0748 245 MG 'Marra' Montgomery AL USA na EM62rh 830 516 150
2026090 2020-12-15 0746 245 LUA 'Caverns' Luray VA USA na FM08sq 25 1075 668 87
2026092 2020-12-15 0745 245 UDG Darlington SC USA na FM04bk 25 1098 682 113
2026089 2020-12-15 0742 245 GTP 'Patten' Thomasville GA USA na EM80cw 1095 680 141
2026087 2020-12-15 0741 242 LKG 'Lindbergh' Americus GA USA na EM72we 25 963 599 138
2026086 2020-12-15 0739 239 5Q Fontanges QC CAN na FO44jn 2282 1418 33
2026084 2020-12-15 0734 236 ZHT 'Forks' Winnipeg MB CAN na EN19ku 50 1315 817 339
2026083 2020-12-15 0730 234 TX 'Tecco' Texarkana AR USA na EM33am 25 658 409 205
2026081 2020-12-15 0718 230 AQE 'Alwood' Greenville NC USA na FM15hq 1245 774 102
2026082 2020-12-15 0718 230 BNZ Abbeville LA USA na EL39wx 25 998 620 186
2026079 2020-12-15 0711 221 HYE 'Hanchey' Fort Rucker (Ozark) AL USA na EM71ei 964 599 148
2026078 2020-12-15 0707 221 BO 'Booie' Bristol (Johnston-Kingsport) TN USA na EM86sj 791 491 107
2026077 2020-12-15 0702 219 ZRS 'Ajax' Regina SK CAN na DO70pl 1684 1046 324
2026076 2020-12-15 0700 219 AY 'Wiket' Waycross GA USA na EM81th 1143 710 134
2026067 2020-12-15 0658 206 AP 'Felps' Alpena MI USA na EN84fx 908 564 39
2026065 2020-12-15 0656 205 GM 'Wilze' Wilmington NC USA na FM14ci 1270 789 109
2026075 2020-12-15 0644 215 CSZ 'Crossroads' Athens TX USA na EM22ab 25 888 552 212
2026074 2020-12-15 0643 214 YIO Pond Inlet NU CAN na FQ12aq 25 3824 2376 6
2026073 2020-12-15 0642 214 K8 Nemiscau QC CAN na FO11wq 2000 1824 1133 33
2026072 2020-12-15 0639 212 OZ 'Ruckr' Fort Rucker (Ozark) AL USA na EM71cf 969 602 150
2026071 2020-12-15 0638 212 HP 'Anger' Hammond LA USA na EM40so 923 573 177
2026069 2020-12-15 0637 210 IOB Mount Sterling KY USA na EM88ab 49 609 378 96
2026070 2020-12-15 0637 211 AN 'Bogga' Anniston AL USA na EM73am 25 743 461 142
2026068 2020-12-15 0636 209 SYS 'Stoystown' Somerset PA USA na FN00nc 25 1037 645 78
2026093 2020-12-15 0631 248 MOB 'Wisle' Mobile AL USA na EM50us 400 934 580 164
2026150 2020-12-15 0129 391 FIQ 'Fiddlers' Morganton NC USA na EM95dr 25 883 549 110
2026149 2020-12-15 0127 391 EFW Jefferson IA USA na EN22ta 25 456 284 320
2026148 2020-12-15 0125 390 OWC 'Coffee County' Douglas GA USA na EM81mj 25 1101 684 136
2026147 2020-12-15 0123 388 RNW Chocowinity NC USA na FM15km 25 1273 791 102
2026146 2020-12-15 0115 385 EMR 'Emory' Augusta GA USA na EM93al 400 1001 622 124
2026145 2020-12-15 0108 381 MNI Manning SC USA na EM93vo 25 1122 697 118
2026143 2020-12-15 0106 380 GR 'Sancy' Grand Island NE USA na EN00uu 669 416 291
2026144 2020-12-15 0106 380 OEL Oakley KS USA na DM99oc 25 857 532 274
2026142 2020-12-15 0105 380 GC 'Deryk' Gillette WY USA na DN74fg 25 1356 842 300
2026141 2020-12-15 0104 379 RUE Russellville AR USA na EM35kg 25 450 279 207
2026140 2020-12-15 0102 376 BHC Baxley GA USA na EM81tr 1108 688 133
2026138 2020-12-15 0057 372 UQN 'Onyun' Vidalia GA USA na EM82uf 25 1072 666 131
2026139 2020-12-15 0057 374 HY 'Nette' Hays KS USA na EM08js 722 448 271
2026135 2020-12-15 0051 368 ROQ Ruston LA USA na EM32qo 25 717 446 193
2026137 2020-12-15 0051 368 VIQ Neillsville WI USA na EN44rn 25 631 392 2
2026136 2020-12-15 0050 368 TEC 'Tech' Blacksburg VA USA na EM97te 25 938 583 98
2026130 2020-12-15 0027 332 SG 'Depre' Green Bay WI USA na EN54wj 25 653 406 19
2026152 2020-12-14 1208 408 MW 'Pelly' Moses Lake WA USA na DN07ic 2467 1533 300
2026151 2020-12-14 1201 402 L4 Nipawin SK CAN na DO73xi 200 1894 1177 332
2026134 2020-12-14 1141 362 YZS Coral Harbour NU CAN na EP84id 500 2852 1772 7
2026132 2020-12-14 1133 341 YCS Chesterfield Inlet NU CAN na EP43pi 25 2720 1690 0
2026124 2020-12-14 1124 311 9Y Pincher Creek AB CAN na DN39am 50 2173 1350 310
2026125 2020-12-14 1124 312 UNT Naramata (Penticton) BC CAN na DN09eo 2559 1590 307
2026122 2020-12-14 1123 308 ZZD Calmar (Edmonton Intl Apt) AB CAN na DO33eg 2354 1463 320
2026119 2020-12-14 1121 293 MB 'Mill Bay' Victoria BC CAN na CN88fq 25 2812 1747 303
2026088 2020-12-14 1055 245 CB Cambridge Bay NU CAN na DP79lc 1000 3464 2152 350
2026080 2020-12-14 1046 221 YAS Kangirsuk QC CAN na FP40xa 500 2764 1717 25
2026066 2020-12-14 1028 205 YRQ Trois Rivieres QC CAN na FN36qi 25 1702 1058 54
2026133 2020-12-13 0726 351 MSQ Culpeper VA USA na FM18bk 25 1129 701 88
2026131 2020-12-13 0707 338 HR 'Sebas' Harlingen TX USA na EL16eh 25 1534 953 206
2026126 2020-12-13 0650 315 AT 'Bruny' Dayton OH USA na EM79tu 569 353 77
2026123 2020-12-13 0649 309 GPI Guapi CLM sa FJ12bn 500 4249 2640 158
2026121 2020-12-13 0648 305 RO 'Topan' Roswell NM USA na DM73si 400 1365 848 247
2026120 2020-12-13 0643 293 TOR Torrington WY USA na DN72wb 25 1173 729 291
2026116 2020-12-13 0634 280 GYZ 'Camp Guernsey' Guernsey WY USA na DN72pf 50 1224 761 292
2026115 2020-12-13 0632 278 GPQ Carrollton GA USA na EM73kn 25 786 488 137
2026114 2020-12-13 0631 278 EOE 'Enoree' Newberry SC USA na EM94eh 25 969 602 118
2026113 2020-12-13 0630 278 CEP 'Capitan' Ruidoso NM USA na DM73hl 25 1432 889 249
2026112 2020-12-13 0629 278 AUR 'Sulfy' Sulphur LA USA na EM30ge 25 997 619 194
2026110 2020-12-13 0626 275 HIN 'Whitney' Chadron NE USA na DN82kt 25 1117 694 296
2026109 2020-12-13 0625 275 GEY Greybull WY USA na DN54xm 50 1552 964 299
2026111 2020-12-13 0624 275 RU 'Rovdy' Salisbury NC USA na EM95sr 985 612 107
2026105 2020-12-13 0157 269 PK 'Spida' Park Rapids MN USA na EN26mu 25 945 587 340
2026101 2020-12-13 0154 263 QY Sydney NS CAN na GN06af 500 2641 1641 61
2026096 2020-12-13 0149 254 LLW 'Woodville' Elizabeth City NC USA na FM16ug 50 1316 818 98
2026085 2020-12-13 0142 237 EZF 'Shannon' Fredericksburg VA USA na FM18gg 25 1167 725 89
2019930 2020-12-06 0319 218 YUY Rouyn QC CAN na FN08me 500 1407 874 38
2019932 2020-12-05 0730 344 SL 'Flory' Salina KS USA na EM18eq 585 364 269
2015303 2020-11-30 0652 326 FC Fredericton NB CAN na FN65qw 1600 2129 1323 60
2015302 2020-11-30 0611 263 LQL 'Lakeland' Willoughby OH USA na EN91hq 25 863 536 65
2015301 2020-11-30 0557 245 MG 'Marra' Montgomery AL USA na EM62rh 830 516 150
2015300 2020-11-30 0555 239 TN 'Tribe' Menominee WI USA na EN65db 734 456 19
2015299 2020-11-30 0543 221 HS 'Hanco' Bay Saint Louis MS USA na EM50gk 25 949 590 171
2015298 2020-11-30 0540 212 HP 'Anger' Hammond LA USA na EM40so 923 573 177
2014874 2020-11-29 1039 402 CV Carlz Carlsbad NM USA na DM72tg 1423 884 242
2019931 2020-11-29 0336 218 PR Prince Rupert BC CAN na CO44sg 500 3412 2120 313
2014875 2020-11-29 0120 418 CW 'Mossy' Lake Charles LA USA na EM30jh 25 978 608 193
2014873 2020-11-29 0112 356 AY St Anthony NL CAN na GO11wj 25 3021 1877 51
2014830 2020-11-28 0722 291 9Q Amos QC CAN na FN08vn 25 1476 917 39
2014829 2020-11-28 0653 264 JUY 'Judd' Andelusia AL USA na EM61th 25 937 582 152
2014828 2020-11-28 0617 224 QM Moncton NB CAN na FN76rc 400 2290 1423 60
2014827 2020-11-28 0601 215 ZAB 'Leduc' Edmonton (Intl Apt) AB CAN na DO33gf 25 2343 1456 320
2014826 2020-11-28 0551 201 IP Mobile AZ USA na DM33tc 25 2033 1263 258
2019933 2020-11-28 0440 418 TLC Tulcan (Carchi) EQA sa FJ10dt 100 4441 2760 159
2014831 2020-11-28 0158 323 TAB Crown Point TRD ca FK91nd 4280 2659 127
2014832 2020-11-27 1133 329 CH 'Ashly' Charleston SC USA na EM92wx 400 1169 726 120
2014834 2020-11-27 1054 368 AN 'Alamo' San Antonio TX USA na EL09ro 400 1249 776 216
2014833 2020-11-27 1048 351 AE 'Dudle' Albuquerque NM USA na DM65pf 1461 907 258
2014802 2020-11-26 0850 353 LLD Lanai HI HWA oc BL10ms 2000 6540 4064 272
2014803 2020-11-26 0144 377 YRR Greely (Ottawa) ON CAN na FN25fg 25 1447 899 55
2014804 2020-11-26 0124 404 HU 'Saltt' Hutchinson KS USA na EM18ac 25 622 387 264
2014801 2020-11-25 1222 347 GC 'Pieve' Garden City KS USA na DM97pt 25 865 538 265
2014800 2020-11-25 1138 221 QU Grande Prairie AB CAN na DO05od 50 2750 1708 320
2013901 2020-11-22 0259 245 LUA 'Caverns' Luray VA USA na FM08sq 25 1075 668 87
2013895 2020-11-21 1103 242 ZT Port Hardy BC CAN na CO60gq 500 3129 1944 306
2013938 2020-11-21 1056 420 PK Olathe KS USA na EM28ps 25 332 206 268
2013892 2020-11-21 1049 242 LE 'Blayd' Lexington KY USA na EM77qx 554 344 98
2013922 2020-11-21 1046 254 LLW 'Woodville' Elizabeth City NC USA na FM16ug 50 1316 818 98
2013924 2020-11-21 1010 254 SM Fort Smith AB CAN na DO49bx 400 2766 1719 334
2013906 2020-11-21 1006 248 MOB 'Wisle' Mobile AL USA na EM50us 400 934 580 164
2013900 2020-11-21 1003 245 HU 'Yinno' Terre Haute IN USA na EM69hj 307 191 78
2013923 2020-11-21 0957 254 MB Manistee MI USA na EN64wg 716 445 31
2013928 2020-11-21 0956 257 DT 'Pinck' Denton TX USA na EM13jg 25 845 525 224
2013930 2020-11-21 0955 257 HCY Cowley WY USA na DN54sv 50 1596 992 300
2013931 2020-11-21 0955 257 JYR York NE USA na EN10ev 25 617 383 293
2013933 2020-11-21 0951 257 MB 'Olste' Saginaw MI USA na EN73vl 755 469 45
2013926 2020-11-21 0948 255 SW 'GABEH' Stillwater OK USA na EM16kf 50 625 389 243
2013919 2020-11-21 0937 253 GB 'Garno' Marshall MN USA na EN24bm 25 750 466 328
2013920 2020-11-21 0937 253 OC 'Nados' Nacogdoches TX USA na EM21pl 25 895 556 204
2013918 2020-11-21 0935 253 DD 'Cobbs' Columbus OH USA na EM89lr 49 680 422 79
2013917 2020-11-21 0934 252 SMS Sumter SC USA na EM93tx 25 1086 675 116
2013914 2020-11-21 0930 251 BR 'Larew' Brainerd MN USA na EN26xk 25 877 545 343
2013897 2020-11-21 0924 245 CB Cambridge Bay NU CAN na DP79lc 1000 3464 2152 350
2013902 2020-11-21 0918 245 PWF 'Sportys' Batavia OH USA na EM79vb 25 576 358 86
2013903 2020-11-21 0918 245 UDG Darlington SC USA na FM04bk 25 1098 682 113
2013899 2020-11-21 0916 245 GTP 'Patten' Thomasville GA USA na EM80cw 1095 680 141
2013893 2020-11-21 0910 242 LKG 'Lindbergh' Americus GA USA na EM72we 25 963 599 138
2013905 2020-11-21 0906 248 KZ 'Buttonville' Stouffville (Toronto) ON CAN na FN03iw 25 1115 693 56
2013907 2020-11-21 0904 248 PQF Mesquite TX USA na EM12rt 25 847 526 218
2013904 2020-11-21 0902 248 CG 'Dutch' Cape Girardeau MO USA na EM57dg 208 129 150
2013934 2020-11-21 0859 257 TZ 'Gibraltar Point' Toronto Island ON CAN na FN03ho 25 1093 679 57
2013927 2020-11-21 0855 256 YXN Whale Cove NU CAN na EP32qf 25 2597 1614 357
2013925 2020-11-21 0852 254 ZYC Calgary AB CAN na DO21xe 25 2260 1404 314
2013921 2020-11-21 0851 254 5B Summerside PE CAN na FN86bj 250 2346 1458 60
2013916 2020-11-21 0849 251 YCD Nanaimo BC CAN na CN89bd 500 2845 1768 304
2013912 2020-11-21 0848 250 YMH Mary's Harbour NL CAN na GO22ch 1000 3068 1906 49
2013908 2020-11-21 0846 248 QL Lethbridge AB CAN na DN39no 2106 1308 311
2013909 2020-11-21 0845 248 UL Montreal QC CAN na FN35bl 1000 1576 979 56
2013894 2020-11-21 0833 242 XC Cranbrook BC CAN na DN29cq 400 2302 1430 309
2013932 2020-11-21 0830 257 LW Kelowna BC CAN na DO00hb 50 2557 1589 308
2013935 2020-11-21 0830 257 XE Saskatoon SK CAN na DO62oe 25 1920 1193 325
2013941 2020-11-21 0821 423 SIF 'Slammer' Reidsville NC USA na FM06cj 25 1014 630 102
2013943 2020-11-21 0819 426 UV 'Tunng' Oxford MS USA na EM54ej 25 513 319 167
2013896 2020-11-21 0251 244 TH Thompson MB CAN na EO15bt 1000 1951 1212 346
2013910 2020-11-21 0243 248 WG Winnipeg MB CAN na EN19hv 250 1326 824 339
2013911 2020-11-21 0242 250 FO Flin Flon MB CAN na DO94dq 1600 1935 1202 338
2013913 2020-11-21 0238 251 AM 'Pande' Amarillo TX USA na DM95cd 400 1054 655 250
2013929 2020-11-21 0226 257 FWC 'Wayne County' Fairfield IL USA na EM58tj 25 224 139 103
2013936 2020-11-21 0220 420 CFY 'Evans' Lake City SC USA na FM03cu 25 1138 707 116
2013939 2020-11-21 0215 420 TU 'Veron' Tupelo MS USA na EM54oe 25 556 345 159
2013940 2020-11-21 0213 423 PCW Port Clinton OH USA na EN81nm 25 739 459 64
2013942 2020-11-21 0211 426 IZS Montezuma GA USA na EM72xi 25 954 592 137
2013937 2020-11-21 0009 420 FQ 'Montz' Fairmont MN USA na EN23tp 25 604 375 332
2013898 2020-11-21 0001 245 FS 'Rokky' Sioux Falls SD USA na EN13ol 100 710 441 317
2013915 2020-11-20 1822 251 JZY Macomb IL USA na EN40rm 25 183 114 8
2013891 2020-11-20 1813 240 CJ 'Calde' Springfield IL USA na EM59et 148 92 46
2013414 2020-11-19 0942 389 PVC Provincetown MA USA na FN42vb 25 1778 1105 71
2013415 2020-11-19 0939 392 ML 'Sabar' Monroe LA USA na EM32wk 727 452 189
2013416 2020-11-19 0925 397 ZST 'Alpine' Saint John NB CAN na FN75af 50 2164 1344 62
2013417 2020-11-19 0900 414 GL 'Shugr' Goodland KS USA na DM99eh 25 928 577 276
2013418 2020-11-19 0855 416 LB 'Panbe' North Platte NE USA na DN91rb 50 858 533 289
2013333 2020-11-18 1219 245 CB Cambridge Bay NU CAN na DP79lc 1000 3464 2152 350
2013351 2020-11-18 1214 372 YCO Coppermine / Kugluktuk NU CAN na DP27kt 1000 3542 2201 342
2013356 2020-11-18 1205 397 ZSS Yellowhead (Saskatoon) SK CAN na DO62pf 25 1919 1193 325
2013355 2020-11-18 1201 391 4W Kelsey MB CAN na EO16ra 25 1950 1211 349
2013357 2020-11-18 1201 408 Z7 Claresholm AB CAN na DO30ea 50 2175 1351 312
2013354 2020-11-18 1200 389 YWB Kelowna BC CAN na DN09et 2566 1594 307
2013353 2020-11-18 1156 382 YE Fort Nelson BC CAN na CO88pt 100 3159 1963 324
2013352 2020-11-18 1145 372 ZPA Glass (Prince Albert) SK CAN na DO73ff 25 1946 1209 329
2013350 2020-11-18 1143 365 MA Mayo YT CAN na CP23bp 500 4025 2501 327
2013349 2020-11-18 1135 352 BVG 'Boll Weevil' Enterprise AL USA na EM71ai 950 590 150
2013348 2020-11-18 1132 350 D7 Kincardine ON CAN na EN94ee 25 968 601 49
2013347 2020-11-18 1130 347 PA Prince Albert SK CAN na DO73cf 25 1957 1216 329
2013346 2020-11-18 1118 339 OP 'Yates' Thomaston GA USA na EM72vw 893 555 135
2013345 2020-11-18 1104 329 X2 Athabasca AB CAN na DO34jr 2426 1508 323
2013344 2020-11-18 1100 329 SMY 'Soyya' Marianna FL USA na EM70ju 1032 641 148
2013343 2020-11-18 1051 323 KR Squaw Schefferville QC CAN na FO64ot 250 2523 1567 37
2013342 2020-11-18 1042 315 UBR Cayo Las Brujas CUB ca FL02ko 2127 1321 144
2013341 2020-11-18 1040 312 UNT Naramata (Penticton) BC CAN na DN09eo 2559 1590 307
2013340 2020-11-18 1033 292 ZET Devon (Edmonton Intl Apt) AB CAN na DO33di 25 2364 1469 320
2013339 2020-11-18 1030 287 YSF Stony Rapids SK CAN na DO79bg 2502 1554 339
2013338 2020-11-18 1022 272 XS Prince George BC CAN na CO83qt 25 2909 1808 315
2013337 2020-11-18 1020 272 LD 'Lubbi' Lubbock TX USA na DM93dp 25 1132 703 242
2013336 2020-11-18 1011 256 YXN Whale Cove NU CAN na EP32qf 25 2597 1614 357
2013334 2020-11-18 1008 254 SM Fort Smith AB CAN na DO49bx 400 2766 1719 334
2013335 2020-11-18 1008 254 ZYC Calgary AB CAN na DO21xe 25 2260 1404 314
2013332 2020-11-18 0949 207 YNE Norway House MB CAN na EO13bx 1000 1759 1093 344
2012941 2020-11-16 1138 275 DE 'Elwin' Decatur IL USA na EM59ms 191 119 58
2012940 2020-11-16 1127 269 PK 'Spida' Park Rapids MN USA na EN26mu 25 945 587 340
2012939 2020-11-16 1122 263 ZQT 'Superior' Thunder Bay ON CAN na EN58jj 50 1065 662 6
2012937 2020-11-16 1112 248 KZ 'Buttonville' Stouffville (Toronto) ON CAN na FN03iw 25 1115 693 56
2012936 2020-11-16 1108 242 ZT Port Hardy BC CAN na CO60gq 500 3129 1944 306
2012935 2020-11-16 1054 227 SQ 'Pnthr' Connersville IN USA na EM79ks 25 504 313 77
2012934 2020-11-16 1039 215 CSZ 'Crossroads' Athens TX USA na EM22ab 25 888 552 212
2012933 2020-11-16 1036 214 LU 'Cultus' Abbotsford BC CAN na CN89xa 400 2712 1685 304
2012932 2020-11-16 1022 200 YDL Dease Lake BC CAN na CO58ak 3519 2187 321
2012938 2020-11-16 1016 260 MTH Marathon FL USA na EL94kr 100 1822 1132 146
2012955 2020-11-16 0202 400 AI 'Addmo' Ardmore OK USA na EM14mf 25 751 467 228
2012942 2020-11-16 0158 284 RQY 'Randolph Co' Elkins WV USA na FM08bv 50 951 591 86
2012954 2020-11-16 0153 396 UV 'Bales' Martinsville VA USA na FM06ao 25 992 617 101
2012953 2020-11-16 0150 396 CRS Corsicana TX USA na EM12ta 25 912 567 214
2012952 2020-11-16 0140 388 PK 'Versi' parkersburg WV USA na EM99gg 813 505 84
2012951 2020-11-16 0138 388 H7 Manitoulin East (Manitowaning) ON CAN na EN95bu 25 1069 664 40
2012950 2020-11-16 0136 385 LN 'Potts' Lincoln NE USA na EN10or 45 545 338 293
2012949 2020-11-16 0120 375 OGM Ontonagon MI USA na EN56hu 25 893 555 7
2012948 2020-11-16 0112 368 ZYZ Toronto (The Queensway) ON CAN na FN03fo 25 1081 672 57
2012947 2020-11-16 0111 368 TEC 'Tech' Blacksburg VA USA na EM97te 25 938 583 98
2012944 2020-11-16 0105 365 JA 'Allen' Jackson MS USA na EM42wj 726 451 174
2012945 2020-11-16 0104 365 JN 'Balll' Muncie IN USA na EN70ie 500 310 71
2012946 2020-11-16 0100 365 TV 'Gwenn' Traverse City MI USA na EN74gr 30 788 490 32
2012943 2020-11-16 0030 346 LW 'Bushi' Lewisburg WV USA na EM97ss 917 569 94
2012427 2020-11-13 0945 414 LK 'Laang' Louisville KY USA na EM78ed 464 288 98
2012426 2020-11-13 0942 412 CTZ Clinton NC USA na FM04tx 25 1192 741 107
2012425 2020-11-13 0940 408 SN 'St. Catharines' Saint Catharines ON CAN na FN03id 12 1079 671 60
2012424 2020-11-13 0939 407 PLT 'Platte Center' Columbus NE USA na EN11hl 50 622 387 299
2012423 2020-11-13 0935 404 MOG Montague CA USA na CN81sr 25 2681 1666 286
1989954 2020-11-06 0210 407 HRU Herington KS USA na EM18oq 25 513 319 269
1989953 2020-11-06 0102 375 BM Balmoral MB CAN na EO10id 25 1349 838 340
1989952 2020-11-06 0058 372 MF 'Manns' Mansfield OH USA na EN80ss 748 465 71
1989951 2020-11-06 0053 370 VOF 'Alcovy' Covington GA USA na EM83cp 862 536 130
1989950 2020-11-06 0049 368 VX Dafoe SK CAN na DO71ru 80 1787 1110 328
1989949 2020-11-06 0048 368 SX Skookum (Cranbrook) BC CAN na DN29cw 500 2312 1437 310
1989948 2020-11-06 0025 362 YZS Coral Harbour NU CAN na EP84id 500 2852 1772 7
1989947 2020-11-06 0024 362 TC 'Tuske' Tuscaloosa AL USA na EM63dd 700 435 155
1989946 2020-11-06 0021 362 CD 'Dawes' Chadron NE USA na DN82js 1122 697 296
1989945 2020-11-06 0013 356 GR 'Famis' Green Bay WI USA na EN54vk 655 407 18
1989944 2020-11-06 0009 355 CS 'Fenix' Columbus GA USA na EM72lk 890 553 141
1989943 2020-11-06 0007 353 VV 'Junne' Greensboro GA USA na EM83lp 913 567 127
1989942 2020-11-06 0004 353 GVB 'Bogalusa' George R Carr Memorial Airfield LA USA na EM50bv 894 556 173
1989681 2020-11-05 1151 350 LF 'Flufy' Lufkin TX USA na EM21of 924 574 203
1989679 2020-11-05 1150 349 GW 'Teock' Greenwood MS USA na EM43wo 25 592 368 173
1989680 2020-11-05 1150 350 CP 'Acore' Cahokia / St Louis IL USA na EM48xm 25 83 52 119
1989678 2020-11-05 1148 348 MC 'Surff' Mason City IA USA na EN33ib 25 506 314 337
1989677 2020-11-05 1141 346 VU 'Aller' Albemarle NC USA na EM95xl 1031 641 108
1989676 2020-11-05 1137 344 ZSB Noranda (Sudbury) ON CAN na EN96pq 100 1198 744 40
1989675 2020-11-05 1136 344 XX Abbotsford BC CAN na CN89sa 2741 1703 304
1989673 2020-11-05 1132 344 ES 'Pikle' Escanaba MI USA na EN65jr 25 817 508 20
1989674 2020-11-05 1130 344 IWJ 'Early County' Blakely GA USA na EM71ok 25 996 619 144
1989672 2020-11-05 1126 342 ST 'Hussk' St Cloud MN USA na EN35al 25 775 481 341
1989671 2020-11-05 1124 341 SB 'Misha' South Bend IN USA na EN61vq 503 312 50
1989670 2020-11-05 1116 340 GN 'Brindl' Lexington KY USA na EM78rc 558 347 97
1989669 2020-11-05 1112 338 YPX Puvirnituq QC CAN na FP10ib 500 2538 1577 17
1989668 2020-11-05 1111 338 TU 'Oillr' Tulsa OK USA na EM26bc 539 335 236
1989666 2020-11-05 1110 338 JZ 'Newbn' Lawrence KS USA na EM28kv 25 368 228 271
1989667 2020-11-05 1109 338 RYN 'Ryan' Tucson AZ USA na DM42kd 400 1975 1227 253
1989665 2020-11-05 1107 338 CYR 'Caidy' Cairo GA USA na EM70wv 25 1081 672 143
1989664 2020-11-05 1104 336 MA 'Wexford' Cadillac MI USA na EN74ff 740 460 35
1989663 2020-11-05 1103 336 LF La Salle MB CAN na EN19ip 50 1299 807 339
1989662 2020-11-05 1102 335 ZKF Kitchener (Wellington) ON CAN na EN93ul 15 1021 634 56
1989661 2020-11-05 1055 335 AWS 'Lawson' Columbus GA USA na EM72lh 902 560 142
1989660 2020-11-05 1052 332 XH Medicine Hat AB CAN na DO40oa 50 1996 1240 314
1989659 2020-11-05 1049 332 SG 'Depre' Green Bay WI USA na EN54wj 25 653 406 19
1989658 2020-11-05 1044 332 PH 'Phurn' Port Huron MI USA na EN82qu 821 510 54
1989657 2020-11-05 1036 329 OU Ste-Foy QC CAN na FN46is 1814 1127 54
1989656 2020-11-05 0817 328 BZJ 'Bellgrove' Indiantown Gap PA USA na FN10rk 1237 769 77
1989653 2020-11-05 0814 326 MA 'Farly' Midland TX USA na DM81ux 400 1287 800 236
1989654 2020-11-05 0814 326 PKZ 'Pickens' Pensacola FL USA na EM60jk 400 998 620 159
1989655 2020-11-05 0814 326 SU 'Snoop' Saint Louis MO USA na EM48op 25 29 18 165
1989652 2020-11-05 0810 326 BKT Blackstone VA USA na FM07xd 1140 708 95
1989651 2020-11-05 0759 315 AT 'Bruny' Dayton OH USA na EM79tu 569 353 77
1989650 2020-11-05 0755 311 9Y Pincher Creek AB CAN na DN39am 50 2173 1350 310
1989649 2020-11-05 0754 308 ZZD Calmar (Edmonton Intl Apt) AB CAN na DO33eg 2354 1463 320
1989648 2020-11-05 0753 305 RO 'Topan' Roswell NM USA na DM73si 400 1365 848 247
1989647 2020-11-05 0745 299 TR Bristol TN USA na EM86un 798 496 106
1989646 2020-11-05 0735 289 YLQ La Tuque QC CAN na FN37oj 500 1739 1080 51
1989645 2020-11-05 0734 287 ZWG 'Stoney' Medicine Rock (Winnipeg) MB CAN na EN19jx 17 1330 826 339
1989644 2020-11-05 0730 284 QD The Pas MB CAN na DO93lx 500 1845 1146 338
1989643 2020-11-05 0728 284 BT 'Rundi' Baton Rouge LA USA na EM40jn 927 576 181
1989642 2020-11-05 0724 281 CX 'Alibi' Conroe TX USA na EM20gk 25 1029 640 205
1989641 2020-11-05 0719 278 GPQ Carrollton GA USA na EM73kn 25 786 488 137
1989640 2020-11-05 0718 278 EOE 'Enoree' Newberry SC USA na EM94eh 25 969 602 118
1989639 2020-11-05 0717 278 CEP 'Capitan' Ruidoso NM USA na DM73hl 25 1432 889 249
1989638 2020-11-05 0716 278 AUR 'Sulfy' Sulphur LA USA na EM30ge 25 997 619 194
1989637 2020-11-05 0711 277 OT 'Wondd' Worthington MN USA na EN23go 25 649 403 325
1989635 2020-11-05 0709 276 YHR Chevery QC CAN na GO00el 500 2757 1713 51
1989636 2020-11-05 0708 276 ZTH 'Headframe' Thompson MB CAN na EO15ct 25 1949 1211 347
1989634 2020-11-05 0702 275 RU 'Rovdy' Salisbury NC USA na EM95sr 985 612 107
1989630 2020-11-05 0658 275 GEY Greybull WY USA na DN54xm 50 1552 964 299
1989631 2020-11-05 0657 275 GUY Guymon OK USA na DM96fq 25 968 602 258
1989632 2020-11-05 0654 275 HIN 'Whitney' Chadron NE USA na DN82kt 25 1117 694 296
1989633 2020-11-05 0654 275 R1 Thetford Mines QC CAN na FN46ib 25 1786 1110 57
1989682 2020-11-05 0651 356 ZF Yellowknife NT CAN na DP22sj 1000 3059 1900 336
1989629 2020-11-05 0650 274 FR Fort Resolution NT CAN na DP31ed 2927 1818 335
1989628 2020-11-05 0647 274 AKQ Wakefield VA USA na FM16lx 25 1230 764 95
1989627 2020-11-05 0644 273 FK 'Airbe' Fort Campbell (Hopkinsville) KY USA na EM66hr 25 391 243 126
1989626 2020-11-05 0137 272 RH 'Arsha' Rhinelander WI USA na EN55ep 758 471 7
1989625 2020-11-05 0125 267 HET Henryetta OK USA na EM15xj 25 601 373 231
1989624 2020-11-05 0124 266 YZX Greenwood NS CAN na FN74kw 400 2223 1381 64
1989623 2020-11-05 0116 257 MB 'Olste' Saginaw MI USA na EN73vl 755 469 45
1989622 2020-11-05 0110 245 LUA 'Caverns' Luray VA USA na FM08sq 25 1075 668 87
1989621 2020-11-05 0055 227 UZ 'Rally' Rock Hill SC USA na EM94lv 25 980 609 113
1989620 2020-11-05 0045 216 YFA Fort Albany ON CAN na EO92de 200 1638 1018 22
1989619 2020-11-05 0039 201 GL La Grande Riviere QC CAN na FO13dp 500 1920 1193 27
1987403 2020-11-03 1052 260 CL 'Rowdy' College Station TX USA na EM10tl 1062 660 209
1987402 2020-11-03 1043 255 BS 'Creed' Austin TX USA na EM10dc 1160 721 214
1987401 2020-11-03 1038 254 MB Manistee MI USA na EN64wg 716 445 31
1987400 2020-11-03 1036 254 LLW 'Woodville' Elizabeth City NC USA na FM16ug 50 1316 818 98
1987399 2020-11-03 1033 248 QL Lethbridge AB CAN na DN39no 2106 1308 311
1987398 2020-11-03 1029 245 PWF 'Sportys' Batavia OH USA na EM79vb 25 576 358 86
1987396 2020-11-03 1028 245 GTP 'Patten' Thomasville GA USA na EM80cw 1095 680 141
1987397 2020-11-03 1028 245 HU 'Yinno' Terre Haute IN USA na EM69hj 307 191 78
1987395 2020-11-03 1025 242 LE 'Blayd' Lexington KY USA na EM77qx 554 344 98
1987394 2020-11-03 1011 233 AG 'Bushe' Augusta GA USA na EM93ag 1016 631 125
1987393 2020-11-03 1009 230 BNZ Abbeville LA USA na EL39wx 25 998 620 186
1987392 2020-11-03 1003 223 YKA Kamloops BC CAN na CO90tq 500 2646 1644 309
1987391 2020-11-03 0956 221 BO 'Booie' Bristol (Johnston-Kingsport) TN USA na EM86sj 791 491 107
1987390 2020-11-03 0954 220 HUR Person NC USA na FM06lf 25 1083 673 102
1987389 2020-11-03 0945 205 GM 'Wilze' Wilmington NC USA na FM14ci 1270 789 109
1987388 2020-11-03 0937 201 BV 'Dewie' Bartlesville OK USA na EM16xu 25 507 315 245
1987442 2020-11-03 0244 524 HRD 'Hardin County' Kountze / Silsbee TX USA na EM20ui 25 1000 621 199
1987441 2020-11-03 0243 523 JJH Johnstown NY USA na FN22ux 25 1462 908 66
1987440 2020-11-03 0242 521 GM 'Judky' Greenville SC USA na EM84ts 884 549 118
1987439 2020-11-03 0239 517 FN 'Hillz' Clinton IA USA na EN41ts 322 200 7
1987437 2020-11-03 0238 515 OS 'Fuler' Columbus OH USA na EN80jb 25 670 417 76
1987438 2020-11-03 0238 516 YWA Petawawa ON CAN na FN15iv 25 1357 843 50
1987435 2020-11-03 0237 423 SIF 'Slammer' Reidsville NC USA na FM06cj 25 1014 630 102
1987436 2020-11-03 0237 426 IZS Montezuma GA USA na EM72xi 25 954 592 137
1987434 2020-11-03 0236 423 PCW Port Clinton OH USA na EN81nm 25 739 459 64
1987433 2020-11-03 0235 420 PK Olathe KS USA na EM28ps 25 332 206 268
1987432 2020-11-03 0232 419 GB 'Babsy' Great Bend KS USA na EM08ng 25 699 434 266
1987431 2020-11-03 0226 414 ATS Artesia NM USA na DM72su 25 1394 866 245
1987430 2020-11-03 0220 413 MC 'Ferni' Mc Comb MS USA na EM41rg 25 848 527 177
1987429 2020-11-03 0217 407 ZHU Hauts-Bois / St Hubert (Montreal) QC CAN na FN35hn 95 1616 1004 57
1987428 2020-11-03 0213 403 ZTO Woodhill / Brampton (Toronto) ON CAN na FN03dr 40 1075 668 56
1987427 2020-11-03 0211 401 Y8 Drummondville QC CAN na FN35tu 126 1700 1056 56
1987425 2020-11-03 0207 400 OHY 'Coney' Cordele GA USA na EM81bx 25 996 619 138
1987426 2020-11-03 0206 400 ROB 'Robinson' Waco TX USA na EM11lm 993 617 216
1987424 2020-11-03 0202 397 ZHA Ancaster (Hamilton) ON CAN na EN93xe 14 1025 637 58
1987422 2020-11-03 0201 397 CIR Cairo IL USA na EM57jb 25 251 156 143
1987423 2020-11-03 0201 397 JE 'Algoa' Jefferson City MO USA na EM38xn 108 67 250
1987421 2020-11-03 0200 396 YPH Inukjuak QC CAN na FO08wk 500 2357 1464 18
1987420 2020-11-03 0144 395 YL Lynn Lake MB CAN na DO96lt 1600 2126 1321 342
1987419 2020-11-03 0143 395 ULS Ulysses KS USA na DM97ho 927 576 264
1987417 2020-11-03 0141 394 SP 'Snore' Spencer IA USA na EN23if 607 377 323
1987418 2020-11-03 0141 395 CA 'Harvs' Newton KS USA na EM18id 25 564 351 263
1987416 2020-11-03 0140 394 MKL 'Mersy' Jackson TN USA na EM55mm 25 412 256 155
1987414 2020-11-03 0138 393 BZ 'Fossi' Clinton OK USA na EM05jk 25 832 517 245
1987413 2020-11-03 0136 393 BR 'Depoo' Brownsville TX USA na EL15fx 1565 973 205
1987415 2020-11-03 0136 393 FGP Fort Bragg NC USA na FM05od 40 1150 714 107
1987410 2020-11-03 0134 392 AGZ Wagner SD USA na EN03ub 25 776 482 309
1987411 2020-11-03 0134 392 FMZ 'Beklof' Fairmont NE USA na EN10fo 25 601 373 290
1987405 2020-11-03 0130 390 OWC 'Coffee County' Douglas GA USA na EM81mj 25 1101 684 136
1987406 2020-11-03 0128 391 EFW Jefferson IA USA na EN22ta 25 456 284 320
1987408 2020-11-03 0128 391 GXD Nacogdoches TX USA na EM21pp 25 878 545 204
1987412 2020-11-03 0127 392 ML Charlevoix QC CAN na FN47uo 500 1919 1192 53
1987407 2020-11-03 0124 391 FIQ 'Fiddlers' Morganton NC USA na EM95dr 25 883 549 110
1987404 2020-11-03 0122 390 BR 'Burns' Burlington IL USA na EN40kp 25 196 122 353
1987409 2020-11-03 0120 391 OO Oshawa ON CAN na FN03nw 7 1145 712 56
1986280 2020-11-02 0839 388 RNW Chocowinity NC USA na FM15km 25 1273 791 102
1986278 2020-11-02 0838 388 MD 'Cabbi' Carbondale / Murphysboro IL USA na EM57ju 186 115 128
1986277 2020-11-02 0836 388 HAH 'Natchez-Adams Co' Natchez MS USA na EM41iq 802 499 182
1986279 2020-11-02 0835 388 OK 'Preso' Preston (Okmulgee) OK USA na EM25as 25 568 353 233
1986275 2020-11-02 0825 379 YPQ Peterborough ON CAN na FN04sf 25 1189 739 56
1986273 2020-11-02 0822 379 DL 'Pykla' Duluth MN USA na EN36tu 893 555 352
1986274 2020-11-02 0822 379 RUE Russellville AR USA na EM35kg 25 450 279 207
1986272 2020-11-02 0821 379 BRA 'Broad River' Asheville NC USA na EM85sg 100 848 527 115
1986270 2020-11-02 0819 376 LC 'Pickl' Columbus OH USA na EM89nv 25 696 432 78
1986269 2020-11-02 0818 376 BHC Baxley GA USA na EM81tr 1108 688 133
1986271 2020-11-02 0817 376 YAG Fort Frances ON CAN na EN38fq 40 1109 689 349
1986266 2020-11-02 0814 375 LF 'Laffs' Lafayette LA USA na EM40bg 963 599 185
1986268 2020-11-02 0812 375 SPH Springhill LA USA na EM32hw 25 700 435 199
1986267 2020-11-02 0811 375 LQ 'Licol' Springfield IL USA na EM59ev 155 96 43
1986265 2020-11-02 0808 374 HY 'Nette' Hays KS USA na EM08js 722 448 271
1986264 2020-11-02 0806 373 YXK Rimouski QC CAN na FN58rl 25 2077 1290 51
1986263 2020-11-02 0805 373 2Q Mont-Laurier QC CAN na FN26go 25 1519 944 50
1986261 2020-11-02 0803 371 GW Jarpik Kuujjuarapik QC CAN na FO15cg 500 2065 1283 23
1986262 2020-11-02 0803 372 UQN 'Onyun' Vidalia GA USA na EM82uf 25 1072 666 131
1986260 2020-11-02 0802 371 FQW 'Walter Hill' Murfreesboro TN USA na EM65tx 25 513 319 127
1986259 2020-11-02 0801 370 YBV Berens River MB CAN na EO12li 25 1570 975 344
1986258 2020-11-02 0757 370 HYW 'Horry' Conway SC USA na FM03kt 25 1193 741 114
1986257 2020-11-02 0752 368 VIQ Neillsville WI USA na EN44rn 25 631 392 2
1986256 2020-11-02 0750 368 ROQ Ruston LA USA na EM32qo 25 717 446